sensor_id;sensor_type;location;lat;lon;timestamp;P1;durP1;ratioP1;P2;durP2;ratioP2
20695;SDS011;10507;52.754;13.040;2023-01-13T00:00:20;0.63;;;0.60;;
20695;SDS011;10507;52.754;13.040;2023-01-13T00:02:48;0.50;;;0.50;;
20695;SDS011;10507;52.754;13.040;2023-01-13T00:05:16;0.60;;;0.60;;
20695;SDS011;10507;52.754;13.040;2023-01-13T00:07:46;1.52;;;0.60;;
20695;SDS011;10507;52.754;13.040;2023-01-13T00:10:15;0.70;;;0.60;;
20695;SDS011;10507;52.754;13.040;2023-01-13T00:12:43;0.87;;;0.50;;
20695;SDS011;10507;52.754;13.040;2023-01-13T00:15:11;0.52;;;0.52;;
20695;SDS011;10507;52.754;13.040;2023-01-13T00:17:39;1.67;;;0.55;;
20695;SDS011;10507;52.754;13.040;2023-01-13T00:20:08;0.88;;;0.50;;
20695;SDS011;10507;52.754;13.040;2023-01-13T00:22:37;0.60;;;0.60;;
20695;SDS011;10507;52.754;13.040;2023-01-13T00:25:07;1.25;;;0.57;;
20695;SDS011;10507;52.754;13.040;2023-01-13T00:27:35;1.50;;;0.60;;
20695;SDS011;10507;52.754;13.040;2023-01-13T00:30:03;0.73;;;0.60;;
20695;SDS011;10507;52.754;13.040;2023-01-13T00:32:32;0.60;;;0.52;;
20695;SDS011;10507;52.754;13.040;2023-01-13T00:35:00;0.95;;;0.50;;
20695;SDS011;10507;52.754;13.040;2023-01-13T00:37:29;0.77;;;0.53;;
20695;SDS011;10507;52.754;13.040;2023-01-13T00:39:56;1.10;;;0.70;;
20695;SDS011;10507;52.754;13.040;2023-01-13T00:42:27;1.80;;;0.55;;
20695;SDS011;10507;52.754;13.040;2023-01-13T00:45:12;0.75;;;0.60;;
20695;SDS011;10507;52.754;13.040;2023-01-13T00:47:40;2.30;;;0.53;;
20695;SDS011;10507;52.754;13.040;2023-01-13T00:50:09;1.40;;;0.50;;
20695;SDS011;10507;52.754;13.040;2023-01-13T00:52:37;1.37;;;0.50;;
20695;SDS011;10507;52.754;13.040;2023-01-13T00:55:07;0.60;;;0.60;;
20695;SDS011;10507;52.754;13.040;2023-01-13T00:57:37;0.57;;;0.50;;
20695;SDS011;10507;52.754;13.040;2023-01-13T01:00:05;0.80;;;0.60;;
20695;SDS011;10507;52.754;13.040;2023-01-13T01:02:34;0.70;;;0.50;;
20695;SDS011;10507;52.754;13.040;2023-01-13T01:05:02;0.93;;;0.50;;
20695;SDS011;10507;52.754;13.040;2023-01-13T01:07:31;0.60;;;0.60;;
20695;SDS011;10507;52.754;13.040;2023-01-13T01:09:58;1.80;;;0.97;;
20695;SDS011;10507;52.754;13.040;2023-01-13T01:12:26;0.83;;;0.60;;
20695;SDS011;10507;52.754;13.040;2023-01-13T01:14:56;1.17;;;0.65;;
20695;SDS011;10507;52.754;13.040;2023-01-13T01:17:24;1.02;;;0.60;;
20695;SDS011;10507;52.754;13.040;2023-01-13T01:19:52;0.63;;;0.60;;
20695;SDS011;10507;52.754;13.040;2023-01-13T01:22:20;0.50;;;0.50;;
20695;SDS011;10507;52.754;13.040;2023-01-13T01:24:47;0.53;;;0.40;;
20695;SDS011;10507;52.754;13.040;2023-01-13T01:27:15;0.90;;;0.55;;
20695;SDS011;10507;52.754;13.040;2023-01-13T01:29:43;0.50;;;0.50;;
20695;SDS011;10507;52.754;13.040;2023-01-13T01:32:13;0.98;;;0.40;;
20695;SDS011;10507;52.754;13.040;2023-01-13T01:34:41;0.70;;;0.57;;
20695;SDS011;10507;52.754;13.040;2023-01-13T01:37:08;0.75;;;0.60;;
20695;SDS011;10507;52.754;13.040;2023-01-13T01:39:36;1.10;;;0.40;;
20695;SDS011;10507;52.754;13.040;2023-01-13T01:42:04;2.08;;;0.52;;
20695;SDS011;10507;52.754;13.040;2023-01-13T01:44:55;1.73;;;0.55;;
20695;SDS011;10507;52.754;13.040;2023-01-13T01:47:27;0.88;;;0.52;;
20695;SDS011;10507;52.754;13.040;2023-01-13T01:49:59;0.68;;;0.68;;
20695;SDS011;10507;52.754;13.040;2023-01-13T01:52:30;1.27;;;0.43;;
20695;SDS011;10507;52.754;13.040;2023-01-13T01:55:03;1.95;;;0.60;;
20695;SDS011;10507;52.754;13.040;2023-01-13T01:57:36;1.17;;;0.65;;
20695;SDS011;10507;52.754;13.040;2023-01-13T02:00:09;0.50;;;0.50;;
20695;SDS011;10507;52.754;13.040;2023-01-13T02:02:39;0.73;;;0.50;;
20695;SDS011;10507;52.754;13.040;2023-01-13T02:05:08;0.73;;;0.60;;
20695;SDS011;10507;52.754;13.040;2023-01-13T02:07:37;0.85;;;0.60;;
20695;SDS011;10507;52.754;13.040;2023-01-13T02:10:08;1.42;;;0.60;;
20695;SDS011;10507;52.754;13.040;2023-01-13T02:12:37;0.95;;;0.50;;
20695;SDS011;10507;52.754;13.040;2023-01-13T02:15:07;0.60;;;0.60;;
20695;SDS011;10507;52.754;13.040;2023-01-13T02:17:44;2.47;;;0.90;;
20695;SDS011;10507;52.754;13.040;2023-01-13T02:20:44;0.40;;;0.40;;
20695;SDS011;10507;52.754;13.040;2023-01-13T02:23:35;1.47;;;0.70;;
20695;SDS011;10507;52.754;13.040;2023-01-13T02:27:08;0.50;;;0.50;;
20695;SDS011;10507;52.754;13.040;2023-01-13T02:30:00;0.90;;;0.50;;
20695;SDS011;10507;52.754;13.040;2023-01-13T02:32:55;0.50;;;0.50;;
20695;SDS011;10507;52.754;13.040;2023-01-13T02:35:32;2.13;;;0.63;;
20695;SDS011;10507;52.754;13.040;2023-01-13T02:38:07;1.40;;;0.70;;
20695;SDS011;10507;52.754;13.040;2023-01-13T02:40:38;1.53;;;0.60;;
20695;SDS011;10507;52.754;13.040;2023-01-13T02:43:13;0.60;;;0.60;;
20695;SDS011;10507;52.754;13.040;2023-01-13T02:46:08;1.03;;;0.50;;
20695;SDS011;10507;52.754;13.040;2023-01-13T02:48:41;2.58;;;0.60;;
20695;SDS011;10507;52.754;13.040;2023-01-13T02:51:12;0.40;;;0.40;;
20695;SDS011;10507;52.754;13.040;2023-01-13T02:53:45;0.50;;;0.50;;
20695;SDS011;10507;52.754;13.040;2023-01-13T02:56:18;0.57;;;0.57;;
20695;SDS011;10507;52.754;13.040;2023-01-13T02:58:49;0.60;;;0.53;;
20695;SDS011;10507;52.754;13.040;2023-01-13T03:01:21;1.83;;;0.63;;
20695;SDS011;10507;52.754;13.040;2023-01-13T03:03:49;0.90;;;0.50;;
20695;SDS011;10507;52.754;13.040;2023-01-13T03:06:22;0.40;;;0.40;;
20695;SDS011;10507;52.754;13.040;2023-01-13T03:09:08;1.43;;;0.50;;
20695;SDS011;10507;52.754;13.040;2023-01-13T03:11:44;0.57;;;0.53;;
20695;SDS011;10507;52.754;13.040;2023-01-13T03:14:20;1.63;;;0.50;;
20695;SDS011;10507;52.754;13.040;2023-01-13T03:17:01;0.50;;;0.50;;
20695;SDS011;10507;52.754;13.040;2023-01-13T03:19:39;1.43;;;0.60;;
20695;SDS011;10507;52.754;13.040;2023-01-13T03:22:13;0.38;;;0.38;;
20695;SDS011;10507;52.754;13.040;2023-01-13T03:24:49;0.50;;;0.50;;
20695;SDS011;10507;52.754;13.040;2023-01-13T03:27:20;1.23;;;0.50;;
20695;SDS011;10507;52.754;13.040;2023-01-13T03:29:54;0.67;;;0.60;;
20695;SDS011;10507;52.754;13.040;2023-01-13T03:32:27;1.20;;;0.50;;
20695;SDS011;10507;52.754;13.040;2023-01-13T03:34:59;1.03;;;0.60;;
20695;SDS011;10507;52.754;13.040;2023-01-13T03:37:35;0.63;;;0.60;;
20695;SDS011;10507;52.754;13.040;2023-01-13T03:40:06;0.57;;;0.50;;
20695;SDS011;10507;52.754;13.040;2023-01-13T03:42:39;0.70;;;0.60;;
20695;SDS011;10507;52.754;13.040;2023-01-13T03:45:30;0.40;;;0.40;;
20695;SDS011;10507;52.754;13.040;2023-01-13T03:48:01;1.75;;;0.57;;
20695;SDS011;10507;52.754;13.040;2023-01-13T03:50:33;1.05;;;0.47;;
20695;SDS011;10507;52.754;13.040;2023-01-13T03:53:06;0.60;;;0.40;;
20695;SDS011;10507;52.754;13.040;2023-01-13T03:55:38;0.40;;;0.40;;
20695;SDS011;10507;52.754;13.040;2023-01-13T03:58:11;0.60;;;0.50;;
20695;SDS011;10507;52.754;13.040;2023-01-13T04:00:45;2.77;;;0.60;;
20695;SDS011;10507;52.754;13.040;2023-01-13T04:03:22;1.00;;;0.50;;
20695;SDS011;10507;52.754;13.040;2023-01-13T04:05:55;1.50;;;0.50;;
20695;SDS011;10507;52.754;13.040;2023-01-13T04:08:27;0.47;;;0.47;;
20695;SDS011;10507;52.754;13.040;2023-01-13T04:10:57;0.40;;;0.40;;
20695;SDS011;10507;52.754;13.040;2023-01-13T04:13:29;0.40;;;0.40;;
20695;SDS011;10507;52.754;13.040;2023-01-13T04:16:01;0.77;;;0.50;;
20695;SDS011;10507;52.754;13.040;2023-01-13T04:18:35;0.55;;;0.50;;
20695;SDS011;10507;52.754;13.040;2023-01-13T04:21:05;0.43;;;0.43;;
20695;SDS011;10507;52.754;13.040;2023-01-13T04:23:34;0.40;;;0.40;;
20695;SDS011;10507;52.754;13.040;2023-01-13T04:26:02;0.50;;;0.50;;
20695;SDS011;10507;52.754;13.040;2023-01-13T04:28:30;0.40;;;0.40;;
20695;SDS011;10507;52.754;13.040;2023-01-13T04:30:58;0.50;;;0.50;;
20695;SDS011;10507;52.754;13.040;2023-01-13T04:33:26;0.50;;;0.50;;
20695;SDS011;10507;52.754;13.040;2023-01-13T04:35:55;0.75;;;0.50;;
20695;SDS011;10507;52.754;13.040;2023-01-13T04:38:23;1.75;;;0.50;;
20695;SDS011;10507;52.754;13.040;2023-01-13T04:40:51;0.60;;;0.53;;
20695;SDS011;10507;52.754;13.040;2023-01-13T04:43:19;0.40;;;0.40;;
20695;SDS011;10507;52.754;13.040;2023-01-13T04:45:47;0.50;;;0.50;;
20695;SDS011;10507;52.754;13.040;2023-01-13T04:48:15;0.53;;;0.53;;
20695;SDS011;10507;52.754;13.040;2023-01-13T04:50:42;2.92;;;0.70;;
20695;SDS011;10507;52.754;13.040;2023-01-13T04:53:12;1.53;;;0.70;;
20695;SDS011;10507;52.754;13.040;2023-01-13T04:55:40;0.88;;;0.50;;
20695;SDS011;10507;52.754;13.040;2023-01-13T04:58:09;1.60;;;0.57;;
20695;SDS011;10507;52.754;13.040;2023-01-13T05:00:37;0.57;;;0.50;;
20695;SDS011;10507;52.754;13.040;2023-01-13T05:03:05;0.50;;;0.50;;
20695;SDS011;10507;52.754;13.040;2023-01-13T05:05:33;0.57;;;0.55;;
20695;SDS011;10507;52.754;13.040;2023-01-13T05:08:01;0.60;;;0.60;;
20695;SDS011;10507;52.754;13.040;2023-01-13T05:10:31;0.95;;;0.52;;
20695;SDS011;10507;52.754;13.040;2023-01-13T05:12:59;0.40;;;0.40;;
20695;SDS011;10507;52.754;13.040;2023-01-13T05:15:44;1.63;;;0.50;;
20695;SDS011;10507;52.754;13.040;2023-01-13T05:18:32;1.77;;;0.63;;
20695;SDS011;10507;52.754;13.040;2023-01-13T05:20:59;0.77;;;0.50;;
20695;SDS011;10507;52.754;13.040;2023-01-13T05:23:27;0.95;;;0.60;;
20695;SDS011;10507;52.754;13.040;2023-01-13T05:26:14;2.60;;;0.70;;
20695;SDS011;10507;52.754;13.040;2023-01-13T05:28:42;1.80;;;0.70;;
20695;SDS011;10507;52.754;13.040;2023-01-13T05:31:10;2.58;;;0.63;;
20695;SDS011;10507;52.754;13.040;2023-01-13T05:33:40;1.27;;;0.60;;
20695;SDS011;10507;52.754;13.040;2023-01-13T05:36:08;0.70;;;0.55;;
20695;SDS011;10507;52.754;13.040;2023-01-13T05:38:36;0.80;;;0.60;;
20695;SDS011;10507;52.754;13.040;2023-01-13T05:41:04;2.20;;;0.50;;
20695;SDS011;10507;52.754;13.040;2023-01-13T05:43:50;1.05;;;0.68;;
20695;SDS011;10507;52.754;13.040;2023-01-13T05:46:18;1.98;;;0.70;;
20695;SDS011;10507;52.754;13.040;2023-01-13T05:48:46;1.13;;;0.75;;
20695;SDS011;10507;52.754;13.040;2023-01-13T05:51:14;3.38;;;0.70;;
20695;SDS011;10507;52.754;13.040;2023-01-13T05:53:42;2.53;;;0.70;;
20695;SDS011;10507;52.754;13.040;2023-01-13T05:56:10;2.63;;;0.90;;
20695;SDS011;10507;52.754;13.040;2023-01-13T05:58:38;5.25;;;1.23;;
20695;SDS011;10507;52.754;13.040;2023-01-13T06:01:07;2.90;;;0.80;;
20695;SDS011;10507;52.754;13.040;2023-01-13T06:03:36;1.20;;;0.80;;
20695;SDS011;10507;52.754;13.040;2023-01-13T06:06:04;1.23;;;0.67;;
20695;SDS011;10507;52.754;13.040;2023-01-13T06:08:34;3.80;;;1.27;;
20695;SDS011;10507;52.754;13.040;2023-01-13T06:11:05;3.58;;;1.20;;
20695;SDS011;10507;52.754;13.040;2023-01-13T06:13:33;3.90;;;1.10;;
20695;SDS011;10507;52.754;13.040;2023-01-13T06:16:01;5.33;;;1.10;;
20695;SDS011;10507;52.754;13.040;2023-01-13T06:18:30;2.40;;;1.15;;
20695;SDS011;10507;52.754;13.040;2023-01-13T06:20:58;5.55;;;1.38;;
20695;SDS011;10507;52.754;13.040;2023-01-13T06:23:26;4.47;;;1.13;;
20695;SDS011;10507;52.754;13.040;2023-01-13T06:25:58;1.53;;;0.90;;
20695;SDS011;10507;52.754;13.040;2023-01-13T06:28:30;3.60;;;1.23;;
20695;SDS011;10507;52.754;13.040;2023-01-13T06:30:59;2.17;;;0.90;;
20695;SDS011;10507;52.754;13.040;2023-01-13T06:33:31;2.00;;;0.90;;
20695;SDS011;10507;52.754;13.040;2023-01-13T06:36:04;3.60;;;1.00;;
20695;SDS011;10507;52.754;13.040;2023-01-13T06:38:40;5.50;;;1.13;;
20695;SDS011;10507;52.754;13.040;2023-01-13T06:41:13;3.57;;;1.10;;
20695;SDS011;10507;52.754;13.040;2023-01-13T06:43:41;1.80;;;0.97;;
20695;SDS011;10507;52.754;13.040;2023-01-13T06:46:08;3.13;;;1.00;;
20695;SDS011;10507;52.754;13.040;2023-01-13T06:48:37;1.85;;;1.08;;
20695;SDS011;10507;52.754;13.040;2023-01-13T06:51:05;2.00;;;0.80;;
20695;SDS011;10507;52.754;13.040;2023-01-13T06:53:33;1.52;;;0.90;;
20695;SDS011;10507;52.754;13.040;2023-01-13T06:56:01;2.28;;;0.90;;
20695;SDS011;10507;52.754;13.040;2023-01-13T06:58:29;2.47;;;0.90;;
20695;SDS011;10507;52.754;13.040;2023-01-13T07:00:58;2.60;;;0.97;;
20695;SDS011;10507;52.754;13.040;2023-01-13T07:03:27;2.13;;;0.80;;
20695;SDS011;10507;52.754;13.040;2023-01-13T07:05:56;1.63;;;0.93;;
20695;SDS011;10507;52.754;13.040;2023-01-13T07:08:25;3.55;;;1.10;;
20695;SDS011;10507;52.754;13.040;2023-01-13T07:10:53;1.90;;;0.88;;
20695;SDS011;10507;52.754;13.040;2023-01-13T07:13:21;0.80;;;0.70;;
20695;SDS011;10507;52.754;13.040;2023-01-13T07:16:07;1.77;;;0.70;;
20695;SDS011;10507;52.754;13.040;2023-01-13T07:18:35;2.33;;;0.80;;
20695;SDS011;10507;52.754;13.040;2023-01-13T07:21:06;3.60;;;1.00;;
20695;SDS011;10507;52.754;13.040;2023-01-13T07:23:35;1.63;;;0.90;;
20695;SDS011;10507;52.754;13.040;2023-01-13T07:26:04;1.33;;;0.70;;
20695;SDS011;10507;52.754;13.040;2023-01-13T07:28:33;2.47;;;0.87;;
20695;SDS011;10507;52.754;13.040;2023-01-13T07:31:01;2.80;;;0.73;;
20695;SDS011;10507;52.754;13.040;2023-01-13T07:33:29;1.00;;;0.70;;
20695;SDS011;10507;52.754;13.040;2023-01-13T07:35:59;3.50;;;0.80;;
20695;SDS011;10507;52.754;13.040;2023-01-13T07:38:29;1.23;;;0.93;;
20695;SDS011;10507;52.754;13.040;2023-01-13T07:40:58;0.83;;;0.73;;
20695;SDS011;10507;52.754;13.040;2023-01-13T07:43:48;1.90;;;0.70;;
20695;SDS011;10507;52.754;13.040;2023-01-13T07:46:15;2.03;;;1.00;;
20695;SDS011;10507;52.754;13.040;2023-01-13T07:48:43;1.07;;;0.90;;
20695;SDS011;10507;52.754;13.040;2023-01-13T07:51:13;0.90;;;0.85;;
20695;SDS011;10507;52.754;13.040;2023-01-13T07:53:43;1.90;;;1.13;;
20695;SDS011;10507;52.754;13.040;2023-01-13T07:56:10;1.77;;;0.73;;
20695;SDS011;10507;52.754;13.040;2023-01-13T07:58:38;1.53;;;0.80;;
20695;SDS011;10507;52.754;13.040;2023-01-13T08:01:06;1.03;;;0.70;;
20695;SDS011;10507;52.754;13.040;2023-01-13T08:03:35;2.73;;;1.00;;
20695;SDS011;10507;52.754;13.040;2023-01-13T08:06:03;1.58;;;0.80;;
20695;SDS011;10507;52.754;13.040;2023-01-13T08:08:31;3.13;;;1.02;;
20695;SDS011;10507;52.754;13.040;2023-01-13T08:11:00;4.63;;;1.47;;
20695;SDS011;10507;52.754;13.040;2023-01-13T08:13:29;4.00;;;1.00;;
20695;SDS011;10507;52.754;13.040;2023-01-13T08:15:58;2.10;;;1.10;;
20695;SDS011;10507;52.754;13.040;2023-01-13T08:18:28;1.53;;;0.80;;
20695;SDS011;10507;52.754;13.040;2023-01-13T08:21:00;1.73;;;0.70;;
20695;SDS011;10507;52.754;13.040;2023-01-13T08:23:29;1.03;;;0.70;;
20695;SDS011;10507;52.754;13.040;2023-01-13T08:25:58;0.85;;;0.73;;
20695;SDS011;10507;52.754;13.040;2023-01-13T08:28:28;1.80;;;1.00;;
20695;SDS011;10507;52.754;13.040;2023-01-13T08:30:57;1.90;;;0.80;;
20695;SDS011;10507;52.754;13.040;2023-01-13T08:33:26;1.27;;;1.17;;
20695;SDS011;10507;52.754;13.040;2023-01-13T08:35:54;1.20;;;0.70;;
20695;SDS011;10507;52.754;13.040;2023-01-13T08:38:22;0.90;;;0.70;;
20695;SDS011;10507;52.754;13.040;2023-01-13T08:40:50;1.70;;;0.80;;
20695;SDS011;10507;52.754;13.040;2023-01-13T08:43:20;1.63;;;0.80;;
20695;SDS011;10507;52.754;13.040;2023-01-13T08:45:54;1.70;;;0.50;;
20695;SDS011;10507;52.754;13.040;2023-01-13T08:48:23;2.13;;;0.60;;
20695;SDS011;10507;52.754;13.040;2023-01-13T08:50:51;1.07;;;0.60;;
20695;SDS011;10507;52.754;13.040;2023-01-13T08:53:20;3.97;;;1.23;;
20695;SDS011;10507;52.754;13.040;2023-01-13T08:55:47;3.30;;;0.80;;
20695;SDS011;10507;52.754;13.040;2023-01-13T08:58:15;2.75;;;0.68;;
20695;SDS011;10507;52.754;13.040;2023-01-13T09:00:45;1.10;;;0.60;;
20695;SDS011;10507;52.754;13.040;2023-01-13T09:03:12;3.07;;;0.80;;
20695;SDS011;10507;52.754;13.040;2023-01-13T09:05:41;1.33;;;0.70;;
20695;SDS011;10507;52.754;13.040;2023-01-13T09:08:09;2.13;;;0.70;;
20695;SDS011;10507;52.754;13.040;2023-01-13T09:10:37;2.53;;;0.70;;
20695;SDS011;10507;52.754;13.040;2023-01-13T09:13:05;7.18;;;1.23;;
20695;SDS011;10507;52.754;13.040;2023-01-13T09:15:39;1.97;;;0.73;;
20695;SDS011;10507;52.754;13.040;2023-01-13T09:18:10;4.43;;;1.20;;
20695;SDS011;10507;52.754;13.040;2023-01-13T09:20:38;4.32;;;0.90;;
20695;SDS011;10507;52.754;13.040;2023-01-13T09:23:06;2.80;;;0.97;;
20695;SDS011;10507;52.754;13.040;2023-01-13T09:25:37;3.10;;;0.75;;
20695;SDS011;10507;52.754;13.040;2023-01-13T09:28:06;2.20;;;0.73;;
20695;SDS011;10507;52.754;13.040;2023-01-13T09:30:35;3.53;;;0.90;;
20695;SDS011;10507;52.754;13.040;2023-01-13T09:33:03;3.95;;;0.77;;
20695;SDS011;10507;52.754;13.040;2023-01-13T09:35:50;6.27;;;1.63;;
20695;SDS011;10507;52.754;13.040;2023-01-13T09:38:18;2.05;;;0.88;;
20695;SDS011;10507;52.754;13.040;2023-01-13T09:40:46;2.53;;;1.02;;
20695;SDS011;10507;52.754;13.040;2023-01-13T09:43:17;4.35;;;1.00;;
20695;SDS011;10507;52.754;13.040;2023-01-13T09:46:09;7.28;;;1.23;;
20695;SDS011;10507;52.754;13.040;2023-01-13T09:48:57;3.42;;;1.10;;
20695;SDS011;10507;52.754;13.040;2023-01-13T09:51:30;5.22;;;1.83;;
20695;SDS011;10507;52.754;13.040;2023-01-13T09:54:05;4.13;;;0.93;;
20695;SDS011;10507;52.754;13.040;2023-01-13T09:56:41;4.40;;;1.07;;
20695;SDS011;10507;52.754;13.040;2023-01-13T09:59:09;4.60;;;1.10;;
20695;SDS011;10507;52.754;13.040;2023-01-13T10:01:40;5.25;;;1.08;;
20695;SDS011;10507;52.754;13.040;2023-01-13T10:04:17;6.05;;;1.17;;
20695;SDS011;10507;52.754;13.040;2023-01-13T10:06:47;5.03;;;1.50;;
20695;SDS011;10507;52.754;13.040;2023-01-13T10:09:19;4.15;;;1.55;;
20695;SDS011;10507;52.754;13.040;2023-01-13T10:11:49;5.88;;;1.35;;
20695;SDS011;10507;52.754;13.040;2023-01-13T10:14:37;5.35;;;1.20;;
20695;SDS011;10507;52.754;13.040;2023-01-13T10:17:10;6.68;;;2.30;;
20695;SDS011;10507;52.754;13.040;2023-01-13T10:19:46;7.60;;;1.73;;
20695;SDS011;10507;52.754;13.040;2023-01-13T10:22:21;6.22;;;1.85;;
20695;SDS011;10507;52.754;13.040;2023-01-13T10:25:12;10.30;;;2.53;;
20695;SDS011;10507;52.754;13.040;2023-01-13T10:27:47;6.73;;;2.17;;
20695;SDS011;10507;52.754;13.040;2023-01-13T10:30:18;5.23;;;1.40;;
20695;SDS011;10507;52.754;13.040;2023-01-13T10:32:50;5.25;;;1.85;;
20695;SDS011;10507;52.754;13.040;2023-01-13T10:38:16;4.90;;;1.27;;
20695;SDS011;10507;52.754;13.040;2023-01-13T10:40:47;4.18;;;1.00;;
20695;SDS011;10507;52.754;13.040;2023-01-13T10:43:16;5.53;;;1.10;;
20695;SDS011;10507;52.754;13.040;2023-01-13T10:45:50;5.78;;;1.27;;
20695;SDS011;10507;52.754;13.040;2023-01-13T10:48:22;4.68;;;1.30;;
20695;SDS011;10507;52.754;13.040;2023-01-13T10:50:57;2.17;;;1.00;;
20695;SDS011;10507;52.754;13.040;2023-01-13T10:53:43;3.60;;;1.10;;
20695;SDS011;10507;52.754;13.040;2023-01-13T10:56:14;5.18;;;1.10;;
20695;SDS011;10507;52.754;13.040;2023-01-13T10:58:44;4.38;;;1.10;;
20695;SDS011;10507;52.754;13.040;2023-01-13T11:01:17;4.72;;;1.23;;
20695;SDS011;10507;52.754;13.040;2023-01-13T11:03:51;3.80;;;0.90;;
20695;SDS011;10507;52.754;13.040;2023-01-13T11:06:21;6.10;;;1.13;;
20695;SDS011;10507;52.754;13.040;2023-01-13T11:08:52;5.82;;;0.82;;
20695;SDS011;10507;52.754;13.040;2023-01-13T11:11:24;3.13;;;1.02;;
20695;SDS011;10507;52.754;13.040;2023-01-13T11:14:14;5.10;;;1.40;;
20695;SDS011;10507;52.754;13.040;2023-01-13T11:17:04;6.03;;;1.45;;
20695;SDS011;10507;52.754;13.040;2023-01-13T11:19:42;4.75;;;1.40;;
20695;SDS011;10507;52.754;13.040;2023-01-13T11:22:15;3.78;;;0.90;;
20695;SDS011;10507;52.754;13.040;2023-01-13T11:24:51;2.92;;;0.95;;
20695;SDS011;10507;52.754;13.040;2023-01-13T11:27:21;3.22;;;1.33;;
20695;SDS011;10507;52.754;13.040;2023-01-13T11:30:02;9.00;;;1.10;;
20695;SDS011;10507;52.754;13.040;2023-01-13T11:32:38;6.10;;;1.08;;
20695;SDS011;10507;52.754;13.040;2023-01-13T11:35:26;6.13;;;1.08;;
20695;SDS011;10507;52.754;13.040;2023-01-13T11:37:56;6.82;;;1.77;;
20695;SDS011;10507;52.754;13.040;2023-01-13T11:40:32;9.38;;;1.63;;
20695;SDS011;10507;52.754;13.040;2023-01-13T11:43:09;2.03;;;0.98;;
20695;SDS011;10507;52.754;13.040;2023-01-13T11:45:44;6.45;;;1.02;;
20695;SDS011;10507;52.754;13.040;2023-01-13T11:48:16;2.13;;;0.80;;
20695;SDS011;10507;52.754;13.040;2023-01-13T11:50:50;4.10;;;1.02;;
20695;SDS011;10507;52.754;13.040;2023-01-13T11:53:35;3.67;;;0.80;;
20695;SDS011;10507;52.754;13.040;2023-01-13T11:56:15;5.95;;;1.38;;
20695;SDS011;10507;52.754;13.040;2023-01-13T11:59:00;5.88;;;1.27;;
20695;SDS011;10507;52.754;13.040;2023-01-13T12:01:48;3.10;;;0.90;;
20695;SDS011;10507;52.754;13.040;2023-01-13T12:04:27;3.13;;;0.80;;
20695;SDS011;10507;52.754;13.040;2023-01-13T12:07:03;2.17;;;0.95;;
20695;SDS011;10507;52.754;13.040;2023-01-13T12:09:43;3.42;;;1.10;;
20695;SDS011;10507;52.754;13.040;2023-01-13T12:12:25;7.63;;;1.88;;
20695;SDS011;10507;52.754;13.040;2023-01-13T12:18:18;4.32;;;1.38;;
20695;SDS011;10507;52.754;13.040;2023-01-13T12:21:14;7.45;;;1.05;;
20695;SDS011;10507;52.754;13.040;2023-01-13T12:23:47;5.43;;;1.00;;
20695;SDS011;10507;52.754;13.040;2023-01-13T12:26:26;8.77;;;1.15;;
20695;SDS011;10507;52.754;13.040;2023-01-13T12:29:01;3.00;;;1.27;;
20695;SDS011;10507;52.754;13.040;2023-01-13T12:31:33;2.40;;;0.95;;
20695;SDS011;10507;52.754;13.040;2023-01-13T12:34:11;4.75;;;1.05;;
20695;SDS011;10507;52.754;13.040;2023-01-13T12:36:55;6.95;;;1.50;;
20695;SDS011;10507;52.754;13.040;2023-01-13T12:39:33;4.15;;;1.23;;
20695;SDS011;10507;52.754;13.040;2023-01-13T12:42:10;5.43;;;1.10;;
20695;SDS011;10507;52.754;13.040;2023-01-13T12:45:07;4.10;;;1.10;;
20695;SDS011;10507;52.754;13.040;2023-01-13T12:47:47;4.95;;;1.85;;
20695;SDS011;10507;52.754;13.040;2023-01-13T13:08:04;6.95;;;1.20;;
20695;SDS011;10507;52.754;13.040;2023-01-13T13:10:37;7.28;;;1.70;;
20695;SDS011;10507;52.754;13.040;2023-01-13T13:13:19;4.85;;;1.38;;
20695;SDS011;10507;52.754;13.040;2023-01-13T13:25:18;6.32;;;1.67;;
20695;SDS011;10507;52.754;13.040;2023-01-13T13:27:58;5.85;;;1.40;;
20695;SDS011;10507;52.754;13.040;2023-01-13T13:30:40;5.03;;;1.58;;
20695;SDS011;10507;52.754;13.040;2023-01-13T13:33:19;6.13;;;1.20;;
20695;SDS011;10507;52.754;13.040;2023-01-13T13:36:06;5.00;;;1.30;;
20695;SDS011;10507;52.754;13.040;2023-01-13T13:38:52;5.53;;;1.38;;
20695;SDS011;10507;52.754;13.040;2023-01-13T13:41:46;6.85;;;1.48;;
20695;SDS011;10507;52.754;13.040;2023-01-13T13:44:35;5.75;;;1.58;;
20695;SDS011;10507;52.754;13.040;2023-01-13T13:47:22;6.90;;;1.80;;
20695;SDS011;10507;52.754;13.040;2023-01-13T13:49:51;3.67;;;1.20;;
20695;SDS011;10507;52.754;13.040;2023-01-13T13:52:21;4.95;;;1.30;;
20695;SDS011;10507;52.754;13.040;2023-01-13T13:54:57;4.88;;;1.33;;
20695;SDS011;10507;52.754;13.040;2023-01-13T13:57:36;5.05;;;1.17;;
20695;SDS011;10507;52.754;13.040;2023-01-13T14:00:15;2.67;;;1.45;;
20695;SDS011;10507;52.754;13.040;2023-01-13T14:02:49;2.95;;;1.20;;
20695;SDS011;10507;52.754;13.040;2023-01-13T14:05:20;6.40;;;1.67;;
20695;SDS011;10507;52.754;13.040;2023-01-13T14:07:50;6.18;;;1.33;;
20695;SDS011;10507;52.754;13.040;2023-01-13T14:10:29;6.85;;;1.42;;
20695;SDS011;10507;52.754;13.040;2023-01-13T14:12:59;5.20;;;1.60;;
20695;SDS011;10507;52.754;13.040;2023-01-13T14:15:30;6.63;;;1.25;;
20695;SDS011;10507;52.754;13.040;2023-01-13T14:18:00;5.95;;;1.25;;
20695;SDS011;10507;52.754;13.040;2023-01-13T14:20:31;3.83;;;1.55;;
20695;SDS011;10507;52.754;13.040;2023-01-13T14:23:00;6.10;;;1.50;;
20695;SDS011;10507;52.754;13.040;2023-01-13T14:25:33;4.65;;;1.20;;
20695;SDS011;10507;52.754;13.040;2023-01-13T14:28:15;4.85;;;1.70;;
20695;SDS011;10507;52.754;13.040;2023-01-13T14:30:47;4.47;;;1.30;;
20695;SDS011;10507;52.754;13.040;2023-01-13T14:33:17;5.55;;;1.35;;
20695;SDS011;10507;52.754;13.040;2023-01-13T14:36:11;4.22;;;1.30;;
20695;SDS011;10507;52.754;13.040;2023-01-13T14:38:41;4.68;;;1.00;;
20695;SDS011;10507;52.754;13.040;2023-01-13T14:41:14;5.25;;;1.20;;
20695;SDS011;10507;52.754;13.040;2023-01-13T14:43:48;5.30;;;1.27;;
20695;SDS011;10507;52.754;13.040;2023-01-13T14:46:19;6.13;;;1.70;;
20695;SDS011;10507;52.754;13.040;2023-01-13T14:48:51;4.82;;;1.65;;
20695;SDS011;10507;52.754;13.040;2023-01-13T14:51:26;4.70;;;1.40;;
20695;SDS011;10507;52.754;13.040;2023-01-13T14:53:56;3.38;;;1.40;;
20695;SDS011;10507;52.754;13.040;2023-01-13T14:56:36;9.35;;;2.15;;
20695;SDS011;10507;52.754;13.040;2023-01-13T15:02:37;3.15;;;1.30;;
20695;SDS011;10507;52.754;13.040;2023-01-13T15:05:31;5.82;;;1.48;;
20695;SDS011;10507;52.754;13.040;2023-01-13T15:08:21;5.75;;;1.58;;
20695;SDS011;10507;52.754;13.040;2023-01-13T15:10:54;5.85;;;1.90;;
20695;SDS011;10507;52.754;13.040;2023-01-13T15:13:28;5.38;;;1.27;;
20695;SDS011;10507;52.754;13.040;2023-01-13T15:16:01;5.30;;;1.42;;
20695;SDS011;10507;52.754;13.040;2023-01-13T15:18:31;5.32;;;1.45;;
20695;SDS011;10507;52.754;13.040;2023-01-13T15:21:01;3.38;;;1.40;;
20695;SDS011;10507;52.754;13.040;2023-01-13T15:23:29;9.10;;;1.70;;
20695;SDS011;10507;52.754;13.040;2023-01-13T15:25:58;6.85;;;1.20;;
20695;SDS011;10507;52.754;13.040;2023-01-13T15:28:28;6.32;;;1.92;;
20695;SDS011;10507;52.754;13.040;2023-01-13T15:30:57;4.05;;;1.55;;
20695;SDS011;10507;52.754;13.040;2023-01-13T15:33:27;8.40;;;1.60;;
20695;SDS011;10507;52.754;13.040;2023-01-13T15:35:55;7.13;;;1.30;;
20695;SDS011;10507;52.754;13.040;2023-01-13T15:38:23;5.70;;;1.50;;
20695;SDS011;10507;52.754;13.040;2023-01-13T15:40:51;8.75;;;1.80;;
20695;SDS011;10507;52.754;13.040;2023-01-13T15:43:20;5.57;;;1.65;;